createdAt,value
2019-01-31T00:00:02.660Z,29.10
2019-01-31T00:01:02.639Z,30.70
2019-01-31T00:02:02.645Z,30.00
2019-01-31T00:03:02.632Z,30.40
2019-01-31T00:04:02.622Z,27.50
2019-01-31T00:05:02.614Z,30.90
2019-01-31T00:06:02.814Z,26.40
2019-01-31T00:07:02.587Z,30.80
2019-01-31T00:08:02.576Z,26.60
2019-01-31T00:09:02.591Z,29.70
2019-01-31T00:10:02.771Z,28.30
2019-01-31T00:11:02.573Z,28.00
2019-01-31T00:12:02.557Z,28.30
2019-01-31T00:13:02.547Z,29.10
2019-01-31T00:14:02.554Z,26.90
2019-01-31T00:15:02.543Z,25.20
2019-01-31T00:16:02.541Z,26.30
2019-01-31T00:17:02.521Z,22.70
2019-01-31T00:18:02.541Z,23.00
2019-01-31T00:19:02.504Z,23.80
2019-01-31T00:20:02.513Z,23.40
2019-01-31T00:21:02.489Z,23.40
2019-01-31T00:22:02.724Z,22.20
2019-01-31T00:23:02.479Z,22.90
2019-01-31T00:24:02.479Z,25.40
2019-01-31T00:25:02.469Z,26.10
2019-01-31T00:26:02.662Z,25.30
2019-01-31T00:27:02.458Z,25.30
2019-01-31T00:28:02.648Z,27.70
2019-01-31T00:29:02.439Z,23.60
2019-01-31T00:30:02.649Z,23.60
2019-01-31T00:31:02.439Z,23.80
2019-01-31T00:32:02.416Z,23.30
2019-01-31T00:33:02.621Z,20.80
2019-01-31T00:34:02.416Z,24.60
2019-01-31T00:35:02.398Z,23.10
2019-01-31T00:36:02.398Z,23.00
2019-01-31T00:37:02.394Z,24.40
2019-01-31T00:38:02.383Z,22.60
2019-01-31T00:39:02.576Z,22.40
2019-01-31T00:40:02.380Z,22.40
2019-01-31T00:41:02.375Z,23.30
2019-01-31T00:42:02.372Z,23.20
2019-01-31T00:43:02.350Z,24.90
2019-01-31T00:44:02.362Z,24.60
2019-01-31T00:45:02.334Z,24.70
2019-01-31T00:46:02.324Z,24.70
2019-01-31T00:47:02.378Z,23.80
2019-01-31T00:48:02.530Z,23.60
2019-01-31T00:49:02.309Z,22.90
2019-01-31T00:50:02.317Z,25.00
2019-01-31T00:51:02.294Z,21.60
2019-01-31T00:52:02.287Z,20.90
2019-01-31T00:53:02.280Z,20.50
2019-01-31T00:54:02.277Z,20.80
2019-01-31T00:55:02.470Z,20.40
2019-01-31T00:56:02.258Z,19.90
2019-01-31T00:57:02.271Z,22.30
2019-01-31T00:58:02.351Z,19.80
2019-01-31T00:59:02.241Z,17.60
2019-01-31T01:00:02.235Z,21.30
2019-01-31T01:01:02.230Z,19.00
2019-01-31T01:02:02.444Z,18.30
2019-01-31T01:03:02.208Z,19.80
2019-01-31T01:04:02.218Z,19.70
2019-01-31T01:05:02.214Z,19.10
2019-01-31T01:06:02.410Z,19.90
2019-01-31T01:07:02.185Z,20.50
2019-01-31T01:08:02.189Z,18.80
2019-01-31T01:09:07.860Z,19.40
2019-01-31T01:10:02.185Z,20.90
2019-01-31T01:11:02.371Z,22.80
2019-01-31T01:12:04.478Z,21.00
2019-01-31T01:13:02.143Z,20.10
2019-01-31T01:14:02.139Z,21.80
2019-01-31T01:15:02.351Z,20.00
2019-01-31T01:16:02.139Z,21.90
2019-01-31T01:17:02.129Z,22.40
2019-01-31T01:18:02.111Z,21.80
2019-01-31T01:19:02.321Z,22.20
2019-01-31T01:20:02.125Z,18.10
2019-01-31T01:21:02.104Z,19.90
2019-01-31T01:22:02.300Z,19.10
2019-01-31T01:23:02.079Z,17.90
2019-01-31T01:24:02.069Z,18.50
2019-01-31T01:25:02.066Z,19.00
2019-01-31T01:26:02.052Z,19.80
2019-01-31T01:27:02.044Z,19.40
2019-01-31T01:28:02.058Z,18.80
2019-01-31T01:29:02.241Z,19.30
2019-01-31T01:30:02.248Z,18.70
2019-01-31T01:31:02.033Z,16.80
2019-01-31T01:32:02.014Z,16.10
2019-01-31T01:33:02.007Z,21.30
2019-01-31T01:34:02.004Z,18.50
2019-01-31T01:35:02.204Z,17.50
2019-01-31T01:36:02.196Z,17.40
2019-01-31T01:37:02.001Z,18.10
2019-01-31T01:38:01.993Z,17.50
2019-01-31T01:39:01.972Z,16.70
2019-01-31T01:40:01.973Z,15.70
2019-01-31T01:41:01.957Z,18.60
2019-01-31T01:42:02.160Z,16.80
2019-01-31T01:43:01.934Z,17.20
2019-01-31T01:44:01.943Z,15.80
2019-01-31T01:45:02.140Z,15.60
2019-01-31T01:46:01.918Z,13.90
2019-01-31T01:47:02.122Z,15.20
2019-01-31T01:48:01.902Z,16.60
2019-01-31T01:49:01.903Z,16.60
2019-01-31T01:50:01.883Z,15.60
2019-01-31T01:51:01.893Z,18.70
2019-01-31T01:52:01.905Z,15.20
2019-01-31T01:53:01.875Z,17.10
2019-01-31T01:54:01.860Z,17.50
2019-01-31T01:55:01.852Z,15.50
2019-01-31T01:56:01.842Z,17.70
2019-01-31T01:57:01.833Z,17.00
2019-01-31T01:58:02.036Z,16.20
2019-01-31T01:59:01.839Z,15.20
2019-01-31T02:00:01.819Z,14.90
2019-01-31T02:01:01.818Z,14.80
2019-01-31T02:02:01.814Z,14.30
2019-01-31T02:03:01.800Z,14.80
2019-01-31T02:04:01.788Z,16.50
2019-01-31T02:05:01.779Z,13.80
2019-01-31T02:06:01.786Z,16.90
2019-01-31T02:07:01.780Z,17.00
2019-01-31T02:08:01.757Z,13.40
2019-01-31T02:09:01.761Z,14.90
2019-01-31T02:10:01.743Z,13.50
2019-01-31T02:11:01.940Z,15.50
2019-01-31T02:12:01.725Z,13.90
2019-01-31T02:13:01.726Z,16.00
2019-01-31T02:14:01.721Z,14.80
2019-01-31T02:15:01.904Z,16.30
2019-01-31T02:16:01.710Z,14.40
2019-01-31T02:17:01.690Z,17.80
2019-01-31T02:18:01.700Z,16.80
2019-01-31T02:19:01.698Z,15.60
2019-01-31T02:20:01.666Z,17.20
2019-01-31T02:21:01.682Z,20.00
2019-01-31T02:22:01.863Z,17.80
2019-01-31T02:23:01.657Z,18.80
2019-01-31T02:24:01.633Z,21.40
2019-01-31T02:25:01.848Z,21.20
2019-01-31T02:26:01.633Z,18.80
2019-01-31T02:27:01.616Z,18.10
2019-01-31T02:28:01.827Z,17.00
2019-01-31T02:29:01.605Z,16.60
2019-01-31T02:30:01.624Z,15.60
2019-01-31T02:31:01.580Z,16.90
2019-01-31T02:32:01.781Z,16.10
2019-01-31T02:33:01.570Z,18.00
2019-01-31T02:34:01.573Z,17.10
2019-01-31T02:35:01.548Z,17.40
2019-01-31T02:36:01.544Z,20.90
2019-01-31T02:37:01.546Z,19.80
2019-01-31T02:38:01.531Z,21.30
2019-01-31T02:39:01.521Z,19.30
2019-01-31T02:40:01.528Z,24.30
2019-01-31T02:41:01.518Z,23.10
2019-01-31T02:42:01.510Z,26.00
2019-01-31T02:43:01.507Z,25.90
2019-01-31T02:44:01.481Z,25.00
2019-01-31T02:45:01.473Z,34.40
2019-01-31T02:46:01.463Z,33.80
2019-01-31T02:47:01.454Z,27.80
2019-01-31T02:48:01.447Z,27.70
2019-01-31T02:49:01.455Z,26.30
2019-01-31T02:50:01.458Z,24.30
2019-01-31T02:51:01.635Z,27.30
2019-01-31T02:52:01.434Z,25.50
2019-01-31T02:53:01.413Z,23.70
2019-01-31T02:54:01.413Z,24.70
2019-01-31T02:55:01.390Z,26.70
2019-01-31T02:56:01.388Z,28.00
2019-01-31T02:57:01.386Z,31.00
2019-01-31T02:58:01.585Z,23.50
2019-01-31T02:59:01.387Z,25.30
2019-01-31T03:00:01.372Z,23.70
2019-01-31T03:01:01.571Z,25.90
2019-01-31T03:02:01.341Z,24.90
2019-01-31T03:03:01.322Z,25.30
2019-01-31T03:04:01.312Z,21.10
2019-01-31T03:05:01.324Z,19.20
2019-01-31T03:06:01.504Z,22.30
2019-01-31T03:07:01.320Z,21.00
2019-01-31T03:08:01.291Z,20.90
2019-01-31T03:09:01.288Z,24.30
2019-01-31T03:10:01.265Z,24.80
2019-01-31T03:11:01.264Z,20.60
2019-01-31T03:12:01.246Z,19.70
2019-01-31T03:13:01.245Z,17.80
2019-01-31T03:14:09.921Z,18.50
2019-01-31T03:15:01.236Z,18.70
2019-01-31T03:16:01.209Z,18.40
2019-01-31T03:17:01.215Z,18.80
2019-01-31T03:18:01.226Z,18.40
2019-01-31T03:19:01.188Z,17.90
2019-01-31T03:20:01.406Z,18.60
2019-01-31T03:21:01.367Z,18.00
2019-01-31T03:22:01.160Z,18.90
2019-01-31T03:23:01.160Z,15.00
2019-01-31T03:24:01.153Z,15.50
2019-01-31T03:25:01.156Z,15.60
2019-01-31T03:26:01.129Z,18.90
2019-01-31T03:27:01.335Z,17.00
2019-01-31T03:28:01.139Z,18.50
2019-01-31T03:29:01.119Z,16.60
2019-01-31T03:30:01.296Z,16.90
2019-01-31T03:31:01.290Z,17.30
2019-01-31T03:32:01.284Z,20.50
2019-01-31T03:33:01.067Z,25.40
2019-01-31T03:34:01.261Z,26.30
2019-01-31T03:35:01.061Z,28.20
2019-01-31T03:36:01.059Z,28.90
2019-01-31T03:37:01.032Z,26.90
2019-01-31T03:38:01.024Z,24.00
2019-01-31T03:39:01.012Z,22.00
2019-01-31T03:40:06.900Z,21.30
2019-01-31T03:41:01.198Z,19.60
2019-01-31T03:42:00.980Z,17.80
2019-01-31T03:43:00.975Z,23.10
2019-01-31T03:44:00.968Z,22.00
2019-01-31T03:45:00.963Z,47.80
2019-01-31T03:46:01.107Z,32.50
2019-01-31T03:47:01.156Z,30.70
2019-01-31T03:48:01.137Z,26.40
2019-01-31T03:49:01.154Z,25.30
2019-01-31T03:50:00.923Z,34.30
2019-01-31T03:51:00.911Z,29.10
2019-01-31T03:52:01.103Z,29.00
2019-01-31T03:53:00.902Z,41.90
2019-01-31T03:54:00.884Z,31.70
2019-01-31T03:55:00.870Z,48.10
2019-01-31T03:56:00.872Z,33.60
2019-01-31T03:57:00.857Z,49.80
2019-01-31T03:58:00.855Z,72.70
2019-01-31T03:59:00.838Z,50.50
2019-01-31T04:00:00.829Z,44.00
2019-01-31T04:01:00.840Z,31.40
2019-01-31T04:02:00.816Z,31.80
2019-01-31T04:03:00.795Z,33.90
2019-01-31T04:04:00.799Z,26.70
2019-01-31T04:05:01.004Z,24.60
2019-01-31T04:06:00.777Z,25.30
2019-01-31T04:07:00.778Z,30.80
2019-01-31T04:08:00.756Z,23.50
2019-01-31T04:09:00.771Z,45.50
2019-01-31T04:10:00.741Z,33.50
2019-01-31T04:11:00.735Z,37.00
2019-01-31T04:12:00.744Z,26.60
2019-01-31T04:13:00.708Z,24.60
2019-01-31T04:14:00.719Z,27.50
2019-01-31T04:15:00.893Z,29.80
2019-01-31T04:16:00.680Z,30.20
2019-01-31T04:17:00.677Z,28.00
2019-01-31T04:18:00.678Z,26.70
2019-01-31T04:19:00.852Z,34.30
2019-01-31T04:20:00.647Z,38.80
2019-01-31T04:21:00.633Z,35.80
2019-01-31T04:22:00.638Z,22.90
2019-01-31T04:23:00.620Z,28.90
2019-01-31T04:24:00.622Z,24.90
2019-01-31T04:25:00.607Z,27.60
2019-01-31T04:26:00.790Z,24.20
2019-01-31T04:27:00.587Z,35.70
2019-01-31T04:28:00.790Z,30.80
2019-01-31T04:29:00.769Z,23.10
2019-01-31T04:30:00.551Z,38.30
2019-01-31T04:31:00.573Z,52.60
2019-01-31T04:32:00.540Z,53.50
2019-01-31T04:33:00.719Z,24.90
2019-01-31T04:34:00.511Z,27.80
2019-01-31T04:35:00.507Z,22.10
2019-01-31T04:36:00.498Z,22.50
2019-01-31T04:37:00.505Z,20.60
2019-01-31T04:38:00.491Z,21.20
2019-01-31T04:39:00.453Z,19.20
2019-01-31T04:40:00.484Z,22.20
2019-01-31T04:41:00.468Z,22.30
2019-01-31T04:42:00.446Z,24.20
2019-01-31T04:43:00.421Z,24.70
2019-01-31T04:44:00.611Z,29.10
2019-01-31T04:45:00.409Z,23.60
2019-01-31T04:46:00.390Z,21.00
2019-01-31T04:47:00.383Z,20.50
2019-01-31T04:48:00.398Z,21.10
2019-01-31T04:49:00.395Z,19.40
2019-01-31T04:50:00.370Z,22.60
2019-01-31T04:51:00.564Z,26.10
2019-01-31T04:52:00.335Z,28.60
2019-01-31T04:53:00.320Z,21.20
2019-01-31T04:54:00.333Z,19.40
2019-01-31T04:55:00.514Z,27.10
2019-01-31T04:56:00.296Z,28.80
2019-01-31T04:57:00.294Z,27.70
2019-01-31T04:58:00.300Z,30.60
2019-01-31T04:59:00.278Z,22.00
2019-01-31T05:00:00.292Z,22.10
2019-01-31T05:01:00.448Z,22.50
2019-01-31T05:02:00.452Z,17.20
2019-01-31T05:03:00.231Z,14.40
2019-01-31T05:04:00.420Z,15.10
2019-01-31T05:05:00.406Z,14.00
2019-01-31T05:06:00.211Z,11.30
2019-01-31T05:07:00.400Z,14.70
2019-01-31T05:08:00.411Z,15.20
2019-01-31T05:09:00.167Z,15.50
2019-01-31T05:10:00.468Z,25.70
2019-01-31T05:11:00.158Z,20.20
2019-01-31T05:12:00.143Z,26.40
2019-01-31T05:13:00.329Z,22.20
2019-01-31T05:14:00.129Z,21.30
2019-01-31T05:15:00.313Z,26.70
2019-01-31T05:16:03.443Z,40.40
2019-01-31T05:17:00.102Z,31.30
2019-01-31T05:18:00.099Z,25.00
2019-01-31T05:19:00.079Z,18.30
2019-01-31T05:20:00.093Z,15.40
2019-01-31T05:21:00.047Z,13.80
2019-01-31T05:22:00.055Z,13.00
2019-01-31T05:23:00.041Z,8.10
2019-01-31T05:24:00.231Z,9.40
2019-01-31T05:25:00.014Z,10.30
2019-01-31T05:26:00.026Z,9.60
2019-01-31T05:26:59.997Z,10.10
2019-01-31T05:27:59.979Z,8.90
2019-01-31T05:28:59.970Z,8.90
2019-01-31T05:30:00.346Z,9.20
2019-01-31T05:30:59.967Z,8.60
2019-01-31T05:31:59.939Z,9.00
2019-01-31T05:32:59.938Z,8.70
2019-01-31T05:33:59.927Z,11.90
2019-01-31T05:34:59.909Z,9.00
2019-01-31T05:35:59.904Z,8.20
2019-01-31T05:36:59.903Z,9.60
2019-01-31T05:37:59.884Z,9.90
2019-01-31T05:38:59.871Z,9.10
2019-01-31T05:39:59.861Z,9.50
2019-01-31T05:40:59.859Z,10.20
2019-01-31T05:41:59.838Z,11.00
2019-01-31T05:42:59.843Z,9.70
2019-01-31T05:43:59.832Z,11.40
2019-01-31T05:44:59.808Z,12.00
2019-01-31T05:45:59.801Z,12.60
2019-01-31T05:46:59.791Z,10.60
2019-01-31T05:47:59.980Z,10.50
2019-01-31T05:48:59.772Z,14.50
2019-01-31T05:49:59.760Z,11.80
2019-01-31T05:50:59.751Z,9.40
2019-01-31T05:51:59.944Z,11.10
2019-01-31T05:52:59.740Z,11.00
2019-01-31T05:53:59.722Z,11.20
2019-01-31T05:54:59.720Z,8.50
2019-01-31T05:55:59.709Z,10.60
2019-01-31T05:56:59.719Z,11.70
2019-01-31T05:57:59.679Z,10.00
2019-01-31T05:58:59.674Z,10.40
2019-01-31T05:59:59.669Z,9.20
2019-01-31T06:00:59.649Z,9.50
2019-01-31T06:01:59.647Z,11.10
2019-01-31T06:02:59.632Z,9.90
2019-01-31T06:03:59.623Z,13.00
2019-01-31T06:04:59.613Z,8.80
2019-01-31T06:05:59.799Z,12.10
2019-01-31T06:07:10.688Z,10.00
2019-01-31T06:07:59.808Z,11.20
2019-01-31T06:08:59.571Z,10.80
2019-01-31T06:09:59.587Z,11.40
2019-01-31T06:11:07.178Z,14.10
2019-01-31T06:11:59.543Z,12.10
2019-01-31T06:12:59.737Z,9.50
2019-01-31T06:13:59.531Z,9.50
2019-01-31T06:14:59.513Z,11.30
2019-01-31T06:15:59.705Z,9.90
2019-01-31T06:16:59.497Z,12.00
2019-01-31T06:17:59.506Z,10.60
2019-01-31T06:18:59.475Z,11.30
2019-01-31T06:19:59.466Z,10.30
2019-01-31T06:20:59.464Z,12.10
2019-01-31T06:21:59.652Z,10.20
2019-01-31T06:22:59.442Z,12.00
2019-01-31T06:23:59.428Z,9.90
2019-01-31T06:24:59.427Z,9.70
2019-01-31T06:25:59.443Z,10.60
2019-01-31T06:26:59.605Z,9.80
2019-01-31T06:27:59.406Z,10.50
2019-01-31T06:28:59.395Z,10.30
2019-01-31T06:29:59.391Z,10.50
2019-01-31T06:30:59.556Z,9.40
2019-01-31T06:31:59.364Z,10.30
2019-01-31T06:32:59.357Z,9.40
2019-01-31T06:33:59.363Z,8.90
2019-01-31T06:34:59.336Z,11.10
2019-01-31T06:35:59.318Z,10.80
2019-01-31T06:36:59.303Z,10.10
2019-01-31T06:37:59.296Z,9.60
2019-01-31T06:38:59.283Z,9.30
2019-01-31T06:39:59.297Z,11.40
2019-01-31T06:40:59.259Z,12.70
2019-01-31T06:41:59.263Z,12.30
2019-01-31T06:42:59.264Z,13.70
2019-01-31T06:43:59.245Z,10.80
2019-01-31T06:44:59.256Z,10.10
2019-01-31T06:45:59.219Z,9.80
2019-01-31T06:46:59.218Z,9.50
2019-01-31T06:47:59.221Z,9.40
2019-01-31T06:48:59.186Z,10.40
2019-01-31T06:49:59.178Z,10.80
2019-01-31T06:50:59.172Z,9.10
2019-01-31T06:51:59.157Z,13.30
2019-01-31T06:52:59.347Z,9.50
2019-01-31T06:53:59.348Z,11.20
2019-01-31T06:54:59.130Z,8.40
2019-01-31T06:55:59.317Z,10.30
2019-01-31T06:56:59.116Z,9.30
2019-01-31T06:57:59.104Z,9.70
2019-01-31T06:58:59.091Z,10.00
2019-01-31T06:59:59.084Z,12.20
2019-01-31T07:00:59.068Z,9.20
2019-01-31T07:01:59.066Z,12.10
2019-01-31T07:02:59.254Z,9.60
2019-01-31T07:03:59.092Z,10.60
2019-01-31T07:04:59.038Z,10.50
2019-01-31T07:05:59.035Z,10.70
2019-01-31T07:06:59.041Z,10.60
2019-01-31T07:07:59.024Z,14.50
2019-01-31T07:08:59.012Z,11.60
2019-01-31T07:09:58.999Z,10.40
2019-01-31T07:10:58.977Z,10.40
2019-01-31T07:11:58.967Z,9.80
2019-01-31T07:12:58.956Z,14.50
2019-01-31T07:13:58.980Z,11.50
2019-01-31T07:14:58.938Z,11.60
2019-01-31T07:15:58.927Z,11.10
2019-01-31T07:16:58.917Z,9.90
2019-01-31T07:17:58.927Z,10.20
2019-01-31T07:18:58.908Z,10.60
2019-01-31T07:19:58.897Z,12.30
2019-01-31T07:20:58.881Z,9.70
2019-01-31T07:21:58.889Z,10.70
2019-01-31T07:22:59.099Z,9.10
2019-01-31T07:23:58.888Z,9.80
2019-01-31T07:24:58.861Z,10.20
2019-01-31T07:25:58.950Z,10.50
2019-01-31T07:26:58.828Z,8.90
2019-01-31T07:27:58.838Z,8.60
2019-01-31T07:28:59.013Z,10.10
2019-01-31T07:29:58.816Z,8.70
2019-01-31T07:30:58.789Z,11.00
2019-01-31T07:31:58.983Z,9.40
2019-01-31T07:32:58.778Z,9.50
2019-01-31T07:33:58.761Z,10.30
2019-01-31T07:34:58.980Z,8.10
2019-01-31T07:35:58.762Z,10.30
2019-01-31T07:36:58.732Z,9.50
2019-01-31T07:37:58.750Z,10.70
2019-01-31T07:38:58.721Z,9.80
2019-01-31T07:39:58.709Z,11.00
2019-01-31T07:40:58.901Z,10.70
2019-01-31T07:41:58.690Z,13.80
2019-01-31T07:42:58.681Z,9.70
2019-01-31T07:43:58.671Z,9.10
2019-01-31T07:44:58.661Z,10.10
2019-01-31T07:45:58.659Z,10.60
2019-01-31T07:46:58.858Z,9.80
2019-01-31T07:47:58.842Z,9.20
2019-01-31T07:48:58.835Z,8.40
2019-01-31T07:49:58.617Z,12.10
2019-01-31T07:50:58.609Z,9.00
2019-01-31T07:51:58.612Z,11.00
2019-01-31T07:52:58.808Z,9.90
2019-01-31T07:53:58.588Z,8.20
2019-01-31T07:55:01.776Z,9.70
2019-01-31T07:55:58.590Z,11.20
2019-01-31T07:56:58.550Z,10.30
2019-01-31T07:57:58.754Z,10.20
2019-01-31T07:58:58.552Z,12.20
2019-01-31T07:59:58.528Z,9.40
2019-01-31T08:00:58.515Z,10.20
2019-01-31T08:01:58.518Z,11.20
2019-01-31T08:02:58.527Z,12.00
2019-01-31T08:04:02.455Z,10.10
2019-01-31T08:04:58.477Z,12.60
2019-01-31T08:05:58.689Z,9.20
2019-01-31T08:06:58.474Z,12.20
2019-01-31T08:07:58.453Z,12.10
2019-01-31T08:08:58.468Z,10.30
2019-01-31T08:09:58.639Z,12.60
2019-01-31T08:10:58.423Z,11.70
2019-01-31T08:11:58.421Z,11.00
2019-01-31T08:12:58.419Z,13.10
2019-01-31T08:13:58.414Z,12.40
2019-01-31T08:14:58.392Z,13.30
2019-01-31T08:15:58.398Z,13.30
2019-01-31T08:16:58.393Z,10.50
2019-01-31T08:17:58.363Z,15.00
2019-01-31T08:18:58.351Z,11.60
2019-01-31T08:19:58.354Z,12.10
2019-01-31T08:20:58.333Z,10.70
2019-01-31T08:21:58.541Z,12.60
2019-01-31T08:23:00.245Z,15.00
2019-01-31T08:23:58.324Z,15.80
2019-01-31T08:24:58.332Z,13.30
2019-01-31T08:25:58.312Z,13.00
2019-01-31T08:26:58.504Z,14.60
2019-01-31T08:27:58.281Z,12.90
2019-01-31T08:28:58.282Z,14.40
2019-01-31T08:29:58.272Z,12.00
2019-01-31T08:30:58.254Z,13.20
2019-01-31T08:31:58.241Z,13.60
2019-01-31T08:32:58.245Z,10.80
2019-01-31T08:33:58.239Z,15.40
2019-01-31T08:34:58.222Z,15.40
2019-01-31T08:35:58.404Z,14.50
2019-01-31T08:36:58.220Z,15.80
2019-01-31T08:37:58.228Z,13.60
2019-01-31T08:38:58.193Z,14.40
2019-01-31T08:39:58.168Z,18.10
2019-01-31T08:40:58.182Z,13.50
2019-01-31T08:42:03.839Z,13.80
2019-01-31T08:42:58.145Z,17.10
2019-01-31T08:43:58.140Z,15.90
2019-01-31T08:44:58.132Z,13.60
2019-01-31T08:45:58.131Z,16.60
2019-01-31T08:46:58.121Z,14.90
2019-01-31T08:47:58.119Z,15.30
2019-01-31T08:48:58.106Z,14.60
2019-01-31T08:49:58.099Z,15.50
2019-01-31T08:50:58.083Z,14.70
2019-01-31T08:51:58.089Z,15.90
2019-01-31T08:52:58.061Z,16.70
2019-01-31T08:53:58.060Z,16.10
2019-01-31T08:54:58.040Z,15.40
2019-01-31T08:55:58.049Z,19.20
2019-01-31T08:56:58.025Z,21.80
2019-01-31T08:57:58.019Z,21.30
2019-01-31T08:58:58.213Z,23.90
2019-01-31T08:59:57.996Z,17.70
2019-01-31T09:00:57.990Z,19.30
2019-01-31T09:01:57.992Z,19.40
2019-01-31T09:02:57.989Z,20.90
2019-01-31T09:03:58.168Z,17.80
2019-01-31T09:04:57.961Z,18.90
2019-01-31T09:05:57.960Z,17.90
2019-01-31T09:06:57.936Z,22.30
2019-01-31T09:07:57.937Z,20.40
2019-01-31T09:08:57.921Z,18.60
2019-01-31T09:09:57.926Z,20.70
2019-01-31T09:10:57.915Z,20.90
2019-01-31T09:11:58.099Z,20.80
2019-01-31T09:12:58.106Z,18.30
2019-01-31T09:13:57.890Z,18.10
2019-01-31T09:14:57.871Z,20.30
2019-01-31T09:15:58.073Z,22.30
2019-01-31T09:16:58.056Z,23.80
2019-01-31T09:17:57.863Z,20.30
2019-01-31T09:18:58.038Z,23.70
2019-01-31T09:19:57.849Z,21.40
2019-01-31T09:20:57.823Z,24.40
2019-01-31T09:21:57.828Z,22.90
2019-01-31T09:22:57.816Z,21.30
2019-01-31T09:23:57.800Z,24.70
2019-01-31T09:24:58.001Z,19.50
2019-01-31T09:25:57.795Z,21.80
2019-01-31T09:26:57.771Z,21.20
2019-01-31T09:27:57.786Z,23.50
2019-01-31T09:28:57.776Z,23.10
2019-01-31T09:29:57.760Z,22.70
2019-01-31T09:30:57.740Z,25.50
2019-01-31T09:31:57.930Z,22.80
2019-01-31T09:32:57.735Z,25.20
2019-01-31T09:33:57.741Z,27.80
2019-01-31T09:34:57.707Z,24.60
2019-01-31T09:35:57.711Z,23.10
2019-01-31T09:36:57.707Z,23.10
2019-01-31T09:37:57.694Z,23.20
2019-01-31T09:38:57.685Z,21.70
2019-01-31T09:39:57.667Z,23.70
2019-01-31T09:40:57.658Z,22.00
2019-01-31T09:41:57.656Z,21.70
2019-01-31T09:42:57.655Z,20.30
2019-01-31T09:43:57.628Z,24.70
2019-01-31T09:44:57.637Z,22.10
2019-01-31T09:45:57.629Z,22.50
2019-01-31T09:46:57.822Z,22.30
2019-01-31T09:47:57.612Z,25.40
2019-01-31T09:48:57.604Z,21.90
2019-01-31T09:49:57.584Z,20.20
2019-01-31T09:50:57.588Z,23.30
2019-01-31T09:51:57.773Z,25.40
2019-01-31T09:52:57.567Z,23.70
2019-01-31T09:53:57.566Z,25.50
2019-01-31T09:54:57.546Z,32.00
2019-01-31T09:55:57.748Z,20.70
2019-01-31T09:56:57.531Z,20.70
2019-01-31T09:57:57.724Z,24.70
2019-01-31T09:58:57.518Z,21.70
2019-01-31T09:59:57.504Z,22.60
2019-01-31T10:00:57.705Z,25.90
2019-01-31T10:01:57.495Z,22.90
2019-01-31T10:02:57.686Z,24.40
2019-01-31T10:03:57.473Z,23.50
2019-01-31T10:04:57.469Z,23.20
2019-01-31T10:05:57.470Z,24.50
2019-01-31T10:06:57.450Z,24.40
2019-01-31T10:07:57.442Z,23.50
2019-01-31T10:08:57.432Z,23.50
2019-01-31T10:09:57.456Z,22.90
2019-01-31T10:10:57.480Z,23.60
2019-01-31T10:11:57.422Z,27.00
2019-01-31T10:12:57.543Z,25.30
2019-01-31T10:13:57.405Z,27.10
2019-01-31T10:14:57.405Z,26.10
2019-01-31T10:15:57.393Z,27.20
2019-01-31T10:16:57.401Z,25.90
2019-01-31T10:17:57.362Z,25.60
2019-01-31T10:18:57.351Z,29.00
2019-01-31T10:19:57.445Z,27.30
2019-01-31T10:20:57.389Z,26.80
2019-01-31T10:21:57.332Z,26.60
2019-01-31T10:22:57.371Z,26.80
2019-01-31T10:23:57.384Z,26.70
2019-01-31T10:24:57.563Z,29.20
2019-01-31T10:25:57.330Z,27.90
2019-01-31T10:26:57.290Z,27.80
2019-01-31T10:27:57.285Z,26.60
2019-01-31T10:28:57.274Z,28.80
2019-01-31T10:29:57.268Z,26.70
2019-01-31T10:30:57.278Z,27.80
2019-01-31T10:31:57.254Z,28.90
2019-01-31T10:32:57.463Z,28.90
2019-01-31T10:33:57.239Z,27.30
2019-01-31T10:34:57.235Z,26.40
2019-01-31T10:35:57.224Z,26.40
2019-01-31T10:36:57.239Z,29.50
2019-01-31T10:37:57.205Z,26.10
2019-01-31T10:38:57.200Z,27.80
2019-01-31T10:39:57.191Z,27.10
2019-01-31T10:40:57.188Z,27.90
2019-01-31T10:41:57.265Z,29.10
2019-01-31T10:42:57.196Z,27.10
2019-01-31T10:43:57.162Z,32.30
2019-01-31T10:44:57.152Z,27.70
2019-01-31T10:45:57.159Z,28.10
2019-01-31T10:46:57.137Z,26.50
2019-01-31T10:47:57.130Z,31.20
2019-01-31T10:48:57.349Z,28.00
2019-01-31T10:49:57.115Z,26.80
2019-01-31T10:50:58.558Z,30.00
2019-01-31T10:51:57.124Z,28.40
2019-01-31T10:52:57.305Z,28.00
2019-01-31T10:53:57.091Z,30.30
2019-01-31T10:54:57.079Z,28.80
2019-01-31T10:55:57.072Z,30.60
2019-01-31T10:56:57.060Z,28.90
2019-01-31T10:57:57.094Z,26.60
2019-01-31T10:58:57.252Z,25.60
2019-01-31T10:59:57.051Z,27.70
2019-01-31T11:00:57.046Z,27.30
2019-01-31T11:01:57.027Z,26.50
2019-01-31T11:02:57.037Z,26.90
2019-01-31T11:03:57.212Z,25.90
2019-01-31T11:04:57.211Z,24.30
2019-01-31T11:05:57.200Z,24.60
2019-01-31T11:06:56.983Z,23.50
2019-01-31T11:07:59.573Z,24.00
2019-01-31T11:08:56.969Z,20.40
2019-01-31T11:09:56.978Z,21.30
2019-01-31T11:10:56.968Z,19.20
2019-01-31T11:11:56.952Z,21.40
2019-01-31T11:13:00.666Z,19.30
2019-01-31T11:13:56.933Z,19.60
2019-01-31T11:14:56.941Z,20.00
2019-01-31T11:15:56.992Z,19.60
2019-01-31T11:16:57.111Z,17.60
2019-01-31T11:17:56.910Z,18.30
2019-01-31T11:19:01.569Z,17.70
2019-01-31T11:19:56.887Z,16.90
2019-01-31T11:20:56.887Z,19.50
2019-01-31T11:21:57.081Z,16.60
2019-01-31T11:22:56.884Z,17.90
2019-01-31T11:23:57.061Z,18.10
2019-01-31T11:24:56.856Z,18.70
2019-01-31T11:25:56.845Z,15.40
2019-01-31T11:26:57.229Z,15.00
2019-01-31T11:27:56.827Z,16.20
2019-01-31T11:28:56.823Z,19.50
2019-01-31T11:29:56.817Z,14.60
2019-01-31T11:30:56.805Z,15.80
2019-01-31T11:31:56.800Z,15.80
2019-01-31T11:32:56.797Z,19.60
2019-01-31T11:33:56.793Z,20.30
2019-01-31T11:34:56.775Z,14.80
2019-01-31T11:35:56.780Z,14.60
2019-01-31T11:36:56.782Z,14.80
2019-01-31T11:37:56.956Z,16.10
2019-01-31T11:38:56.745Z,14.90
2019-01-31T11:39:56.768Z,15.90
2019-01-31T11:40:56.767Z,15.20
2019-01-31T11:41:56.725Z,18.30
2019-01-31T11:42:56.733Z,15.20
2019-01-31T11:43:56.717Z,15.80
2019-01-31T11:44:56.907Z,14.30
2019-01-31T11:45:56.700Z,17.00
2019-01-31T11:46:56.892Z,15.40
2019-01-31T11:47:56.685Z,16.70
2019-01-31T11:48:56.906Z,16.30
2019-01-31T11:49:56.677Z,15.10
2019-01-31T11:50:56.899Z,17.80
2019-01-31T11:51:56.684Z,15.50
2019-01-31T11:52:56.653Z,15.60
2019-01-31T11:53:56.845Z,16.00
2019-01-31T11:54:56.664Z,16.60
2019-01-31T11:55:56.637Z,16.90
2019-01-31T11:57:05.277Z,19.40
2019-01-31T11:57:56.635Z,17.80
2019-01-31T11:58:56.636Z,19.00
2019-01-31T11:59:56.611Z,17.00
2019-01-31T12:00:56.818Z,16.70
2019-01-31T12:01:56.587Z,17.10
2019-01-31T12:02:56.590Z,17.50
2019-01-31T12:03:56.586Z,18.30
2019-01-31T12:04:56.580Z,18.40
2019-01-31T12:05:56.567Z,17.30
2019-01-31T12:06:56.562Z,16.90
2019-01-31T12:07:56.743Z,17.00
2019-01-31T12:08:56.560Z,18.90
2019-01-31T12:09:56.545Z,18.00
2019-01-31T12:10:56.540Z,18.20
2019-01-31T12:11:56.539Z,18.10
2019-01-31T12:12:56.527Z,20.30
2019-01-31T12:13:56.516Z,20.40
2019-01-31T12:14:56.531Z,18.30
2019-01-31T12:15:56.502Z,18.00
2019-01-31T12:16:56.514Z,19.80
2019-01-31T12:17:56.674Z,18.70
2019-01-31T12:18:56.470Z,17.40
2019-01-31T12:19:56.670Z,17.60
2019-01-31T12:20:56.495Z,17.70
2019-01-31T12:21:56.462Z,20.00
2019-01-31T12:22:56.663Z,20.10
2019-01-31T12:23:56.436Z,20.00
2019-01-31T12:24:56.632Z,20.50
2019-01-31T12:25:56.440Z,19.40
2019-01-31T12:26:56.470Z,19.90
2019-01-31T12:27:56.526Z,18.10
2019-01-31T12:28:56.414Z,19.30
2019-01-31T12:29:56.405Z,18.90
2019-01-31T12:30:56.594Z,20.40
2019-01-31T12:31:56.382Z,19.30
2019-01-31T12:32:56.376Z,20.00
2019-01-31T12:33:56.474Z,18.50
2019-01-31T12:34:56.382Z,20.50
2019-01-31T12:35:56.382Z,21.00
2019-01-31T12:36:56.343Z,19.50
2019-01-31T12:37:56.340Z,20.40
2019-01-31T12:38:56.356Z,19.70
2019-01-31T12:39:56.324Z,19.30
2019-01-31T12:40:56.331Z,21.90
2019-01-31T12:41:56.323Z,21.60
2019-01-31T12:42:56.305Z,18.80
2019-01-31T12:43:56.310Z,19.40
2019-01-31T12:44:56.292Z,20.30
2019-01-31T12:45:56.293Z,19.50
2019-01-31T12:46:56.284Z,20.90
2019-01-31T12:47:56.479Z,21.90
2019-01-31T12:48:56.270Z,21.30
2019-01-31T12:49:56.260Z,20.00
2019-01-31T12:50:56.253Z,20.50
2019-01-31T12:51:56.253Z,21.00
2019-01-31T12:52:56.237Z,19.70
2019-01-31T12:53:56.450Z,20.80